Time;durP1;ratioP1;P1;durP2;ratioP2;P2;SDS_P1;SDS_P2;PMS_P1;PMS_P2;Temp;Humidity;BMP_temperature;BMP_pressure;BME280_temperature;BME280_humidity;BME280_pressure;Samples;Min_cycle;Max_cycle;Signal;HPM_P1;HPM_P2
2022/09/15 00:02:09;;;;;;;0.40;0.40;;;;;;;13.21;74.48;98368.69;5147141;27;20102;-74
2022/09/15 00:04:35;;;;;;;0.30;0.30;;;;;;;13.25;74.15;98370.22;5128177;27;20071;-74
2022/09/15 00:07:00;;;;;;;0.40;0.40;;;;;;;13.20;74.22;98363.56;5128282;27;20082;-75
2022/09/15 00:09:25;;;;;;;0.30;0.30;;;;;;;13.26;73.90;98368.44;5147118;27;20023;-74
2022/09/15 00:11:51;;;;;;;0.30;0.30;;;;;;;13.22;73.64;98356.50;5146794;27;20027;-74
2022/09/15 00:14:17;;;;;;;0.30;0.30;;;;;;;13.29;72.99;98365.69;5146985;27;20447;-75
2022/09/15 00:16:42;;;;;;;0.40;0.40;;;;;;;13.31;73.25;98369.06;5146512;27;20027;-73
2022/09/15 00:19:07;;;;;;;0.30;0.30;;;;;;;13.31;73.10;98368.19;5146641;27;20030;-74
2022/09/15 00:21:36;;;;;;;0.70;0.70;;;;;;;13.33;73.17;98362.00;5147043;27;20080;-75
2022/09/15 00:24:02;;;;;;;0.40;0.40;;;;;;;13.29;72.92;98357.84;5128244;27;20094;-75
2022/09/15 00:26:29;;;;;;;0.30;0.30;;;;;;;13.27;72.79;98352.72;5146599;27;20026;-75
2022/09/15 00:28:56;;;;;;;0.30;0.30;;;;;;;13.27;72.72;98354.50;5146786;27;20023;-74
2022/09/15 00:31:23;;;;;;;0.30;0.30;;;;;;;13.25;72.58;98345.94;5146727;28;20023;-75
2022/09/15 00:33:51;;;;;;;0.40;0.40;;;;;;;13.30;72.11;98354.34;5146705;28;20106;-75
2022/09/15 00:36:19;;;;;;;0.30;0.30;;;;;;;13.35;72.05;98352.34;5146369;28;20102;-75
2022/09/15 00:38:44;;;;;;;0.30;0.30;;;;;;;13.34;72.16;98358.47;5128001;28;20035;-76
2022/09/15 00:41:12;;;;;;;0.30;0.30;;;;;;;13.33;72.24;98348.13;5127944;28;20023;-75
2022/09/15 00:43:54;;;;;;;0.30;0.30;;;;;;;13.37;71.83;98350.47;5128104;28;20023;-74
2022/09/15 00:46:27;;;;;;;0.30;0.30;;;;;;;13.41;71.57;98348.56;5127990;28;20082;-73
2022/09/15 00:49:02;;;;;;;0.40;0.40;;;;;;;13.41;71.60;98345.97;5128133;28;20031;-74
2022/09/15 00:51:50;;;;;;;0.38;0.38;;;;;;;13.48;71.50;98341.25;5146446;27;20037;-73
2022/09/15 00:54:29;;;;;;;0.30;0.30;;;;;;;13.41;71.69;98329.47;5132135;27;20072;-73
2022/09/15 00:56:59;;;;;;;0.40;0.40;;;;;;;13.43;71.83;98344.13;5131950;27;20042;-73
2022/09/15 00:59:29;;;;;;;0.30;0.30;;;;;;;13.45;71.80;98334.44;5150573;27;20023;-74
2022/09/15 01:01:59;;;;;;;0.40;0.40;;;;;;;13.42;71.95;98336.38;5150415;27;20023;-74
2022/09/15 01:04:25;;;;;;;0.57;0.57;;;;;;;13.39;71.72;98340.81;5150311;27;20114;-74
2022/09/15 01:06:58;;;;;;;0.60;0.60;;;;;;;13.32;71.48;98328.22;5150368;27;20027;-73
2022/09/15 01:09:49;;;;;;;0.30;0.30;;;;;;;13.32;71.29;98336.84;5150453;27;20023;-74
2022/09/15 01:12:15;;;;;;;0.40;0.40;;;;;;;13.32;71.30;98341.25;5138641;27;20039;-73
2022/09/15 01:14:41;;;;;;;0.40;0.40;;;;;;;13.29;71.43;98329.19;5150210;27;20023;-73
2022/09/15 01:17:14;;;;;;;0.77;0.77;;;;;;;13.27;71.53;98333.66;5150035;27;20020;-73
2022/09/15 01:19:58;;;;;;;0.30;0.30;;;;;;;13.31;71.25;98335.19;5149984;27;20023;-74
2022/09/15 01:22:50;;;;;;;0.30;0.30;;;;;;;13.26;70.98;98326.75;5150299;27;20023;-74
2022/09/15 01:25:26;;;;;;;0.40;0.40;;;;;;;13.22;70.96;98327.84;5131614;27;20034;-74
2022/09/15 01:28:19;;;;;;;0.32;0.32;;;;;;;13.18;70.87;98328.94;5149980;27;20022;-75
2022/09/15 01:30:54;;;;;;;0.40;0.40;;;;;;;13.09;70.81;98315.47;5131256;27;20027;-75
2022/09/15 01:33:48;;;;;;;0.52;0.50;;;;;;;13.02;70.74;98314.94;5149888;27;20023;-75
2022/09/15 01:36:20;;;;;;;0.40;0.40;;;;;;;13.05;70.59;98318.31;5149574;27;20470;-74
2022/09/15 01:39:03;;;;;;;0.35;0.35;;;;;;;12.89;70.59;98311.31;5131258;27;20034;-75
2022/09/15 01:41:49;;;;;;;0.30;0.30;;;;;;;12.94;70.64;98316.28;5149757;27;20096;-74
2022/09/15 01:44:23;;;;;;;0.45;0.45;;;;;;;12.86;70.92;98312.31;5149736;27;20030;-75
2022/09/15 01:46:53;;;;;;;0.30;0.30;;;;;;;12.85;70.61;98305.41;5131118;27;20030;-75
2022/09/15 01:49:26;;;;;;;0.30;0.30;;;;;;;12.83;70.73;98309.00;5149517;27;20019;-75
2022/09/15 01:51:52;;;;;;;0.30;0.30;;;;;;;12.87;70.98;98310.53;5149490;27;20047;-75
2022/09/15 01:54:25;;;;;;;0.30;0.30;;;;;;;12.88;71.03;98305.25;5149674;27;20090;-75
2022/09/15 01:56:51;;;;;;;0.30;0.30;;;;;;;12.84;70.97;98300.28;5149394;27;20029;-75
2022/09/15 01:59:16;;;;;;;0.38;0.38;;;;;;;12.86;71.00;98299.28;5131080;27;20043;-75
2022/09/15 02:01:56;;;;;;;0.40;0.40;;;;;;;12.92;70.92;98316.38;5130866;27;20110;-75
2022/09/15 02:04:26;;;;;;;0.30;0.30;;;;;;;12.98;70.94;98309.97;5130572;27;20102;-75
2022/09/15 02:07:10;;;;;;;8.50;2.95;;;;;;;12.98;70.83;98304.78;5131224;27;20023;-75
2022/09/15 02:09:43;;;;;;;0.30;0.30;;;;;;;12.97;70.87;98310.91;5149566;27;20106;-76
2022/09/15 02:12:34;;;;;;;0.30;0.30;;;;;;;12.99;70.92;98302.09;5130980;27;20099;-75
2022/09/15 02:15:07;;;;;;;0.30;0.30;;;;;;;13.05;70.66;98305.31;5131078;27;20023;-74
2022/09/15 02:17:37;;;;;;;0.30;0.30;;;;;;;12.99;70.81;98288.22;5149048;27;20027;-73
2022/09/15 02:20:34;;;;;;;0.40;0.40;;;;;;;13.03;70.50;98297.56;5148793;27;20027;-74
2022/09/15 02:23:07;;;;;;;0.30;0.30;;;;;;;13.07;70.53;98293.88;5130928;27;20494;-74
2022/09/15 02:25:50;;;;;;;0.30;0.30;;;;;;;13.09;70.61;98289.44;5148871;27;20110;-73
2022/09/15 02:28:19;;;;;;;0.30;0.30;;;;;;;13.13;70.36;98296.16;5130081;27;20034;-74
2022/09/15 02:30:47;;;;;;;0.40;0.40;;;;;;;13.10;70.15;98292.88;5148594;27;20030;-73
2022/09/15 02:33:18;;;;;;;0.40;0.40;;;;;;;13.00;70.07;98288.13;5148799;27;20038;-73
2022/09/15 02:35:44;;;;;;;0.30;0.30;;;;;;;12.97;69.97;98290.09;5148535;27;20039;-73
2022/09/15 02:38:11;;;;;;;0.40;0.40;;;;;;;12.97;69.81;98293.50;5148517;27;20028;-73
2022/09/15 02:40:40;;;;;;;0.30;0.30;;;;;;;12.87;69.84;98295.78;5148729;27;20181;-74
2022/09/15 02:43:10;;;;;;;0.30;0.30;;;;;;;12.83;69.76;98299.44;5148594;27;20118;-73
2022/09/15 02:45:35;;;;;;;0.40;0.40;;;;;;;12.77;70.08;98291.94;5148572;27;20527;-74
2022/09/15 02:48:01;;;;;;;0.30;0.30;;;;;;;12.76;69.96;98293.69;5148126;27;20050;-74
2022/09/15 02:50:26;;;;;;;0.30;0.30;;;;;;;12.69;69.96;98286.28;5148176;27;20038;-73
2022/09/15 02:52:55;;;;;;;0.40;0.40;;;;;;;12.69;70.28;98284.53;5147934;27;20075;-73
2022/09/15 02:55:22;;;;;;;0.30;0.30;;;;;;;12.65;69.96;98283.03;5148115;27;20019;-73
2022/09/15 02:57:47;;;;;;;0.30;0.30;;;;;;;12.62;69.86;98280.56;5129348;27;20023;-73
2022/09/15 03:00:18;;;;;;;0.35;0.35;;;;;;;12.62;70.06;98277.97;5148069;27;20038;-73
2022/09/15 03:02:52;;;;;;;0.30;0.30;;;;;;;12.54;70.19;98288.75;5148150;27;20034;-73
2022/09/15 03:05:21;;;;;;;0.30;0.30;;;;;;;12.43;70.45;98272.88;5129299;27;20143;-73
2022/09/15 03:07:47;;;;;;;0.40;0.40;;;;;;;12.43;70.47;98276.28;5147909;27;20023;-73
2022/09/15 03:10:14;;;;;;;0.30;0.30;;;;;;;12.37;70.75;98271.38;5148353;27;20077;-73
2022/09/15 03:12:45;;;;;;;0.40;0.40;;;;;;;12.33;70.95;98281.09;5147808;27;20023;-73
2022/09/15 03:15:12;;;;;;;0.40;0.40;;;;;;;12.27;70.98;98265.81;5146990;27;20019;-73
2022/09/15 03:17:41;;;;;;;2.72;2.50;;;;;;;12.27;71.08;98271.00;5147412;27;20050;-73
2022/09/15 03:20:08;;;;;;;0.30;0.30;;;;;;;12.28;70.93;98270.09;5147700;27;20027;-74
2022/09/15 03:22:34;;;;;;;0.40;0.40;;;;;;;12.21;71.24;98260.91;5147488;27;20466;-73
2022/09/15 03:25:00;;;;;;;0.30;0.30;;;;;;;12.16;71.27;98260.31;5147626;27;20083;-74
2022/09/15 03:27:26;;;;;;;0.30;0.30;;;;;;;12.14;71.41;98261.22;5128793;27;20027;-74
2022/09/15 03:29:52;;;;;;;0.30;0.30;;;;;;;12.12;71.50;98257.84;5147469;27;20420;-73
2022/09/15 03:32:17;;;;;;;0.38;0.38;;;;;;;12.08;71.62;98250.25;5147529;27;20083;-74
2022/09/15 03:34:43;;;;;;;0.30;0.30;;;;;;;12.03;71.19;98243.50;5147401;27;20052;-74
2022/09/15 03:37:16;;;;;;;0.30;0.30;;;;;;;12.07;71.50;98252.00;5082729;28;20392;-66
2022/09/15 03:39:42;;;;;;;0.30;0.30;;;;;;;12.03;71.38;98245.25;5082606;28;20088;-67
2022/09/15 03:42:07;;;;;;;0.40;0.40;;;;;;;12.04;71.63;98249.56;5082542;28;20020;-66
2022/09/15 03:44:34;;;;;;;0.40;0.40;;;;;;;12.06;71.34;98250.31;5082645;28;20024;-66
2022/09/15 03:47:00;;;;;;;0.30;0.30;;;;;;;12.05;71.67;98246.03;5082378;28;20075;-66
2022/09/15 03:49:25;;;;;;;1.10;0.88;;;;;;;12.08;71.64;98245.91;5082287;28;20029;-65
2022/09/15 03:51:51;;;;;;;0.30;0.30;;;;;;;12.10;71.71;98248.44;5082552;28;20036;-67
2022/09/15 03:54:16;;;;;;;0.30;0.30;;;;;;;12.12;71.70;98250.03;5082280;28;20056;-66
2022/09/15 03:56:42;;;;;;;0.40;0.40;;;;;;;12.15;71.49;98246.47;5082156;28;20451;-66
2022/09/15 03:59:08;;;;;;;0.30;0.30;;;;;;;12.20;71.48;98239.28;5082375;28;20067;-66
2022/09/15 04:01:34;;;;;;;0.40;0.40;;;;;;;12.19;71.58;98241.97;5082223;28;20025;-66
2022/09/15 04:03:59;;;;;;;0.30;0.30;;;;;;;12.20;71.96;98239.28;5082204;28;20044;-66
2022/09/15 04:06:25;;;;;;;0.40;0.40;;;;;;;12.22;72.02;98226.19;5082074;28;20047;-67
2022/09/15 04:08:52;;;;;;;0.30;0.30;;;;;;;12.28;71.80;98236.28;5082211;28;20025;-66
2022/09/15 04:11:19;;;;;;;0.30;0.30;;;;;;;12.24;72.01;98221.72;5082092;28;20491;-66
2022/09/15 04:13:45;;;;;;;0.30;0.30;;;;;;;12.22;72.56;98227.00;5081889;28;20028;-66
2022/09/15 04:16:14;;;;;;;0.40;0.40;;;;;;;12.26;72.72;98228.56;5081921;28;20039;-66
2022/09/15 04:18:39;;;;;;;0.30;0.30;;;;;;;12.24;72.65;98229.53;5081800;28;20044;-66
2022/09/15 04:21:07;;;;;;;0.30;0.30;;;;;;;12.26;72.89;98232.91;5081941;28;20461;-66
2022/09/15 04:23:33;;;;;;;0.30;0.30;;;;;;;12.23;72.55;98243.47;5081890;28;20116;-67
2022/09/15 04:26:06;;;;;;;0.38;0.38;;;;;;;12.21;73.22;98240.94;5081653;28;20043;-67
2022/09/15 04:28:35;;;;;;;0.40;0.40;;;;;;;12.21;73.07;98238.34;5081781;28;20048;-66
2022/09/15 04:31:06;;;;;;;0.35;0.35;;;;;;;12.19;74.16;98231.56;5081819;28;20104;-66
2022/09/15 04:33:33;;;;;;;0.30;0.30;;;;;;;12.26;74.36;98233.75;5081437;28;20035;-66
2022/09/15 04:36:04;;;;;;;0.40;0.40;;;;;;;12.31;74.76;98236.13;5081008;28;20052;-67
2022/09/15 04:38:30;;;;;;;0.30;0.30;;;;;;;12.43;74.62;98239.03;5081440;28;20056;-67
2022/09/15 04:40:56;;;;;;;0.40;0.40;;;;;;;12.46;75.10;98234.50;5080082;28;20025;-66
2022/09/15 04:43:22;;;;;;;0.30;0.30;;;;;;;12.61;74.78;98235.47;5081234;28;20024;-66
2022/09/15 04:45:48;;;;;;;0.30;0.30;;;;;;;12.76;74.33;98235.59;5081184;28;20025;-66
2022/09/15 04:48:13;;;;;;;0.30;0.30;;;;;;;12.88;73.97;98250.56;5070018;28;20021;-66
2022/09/15 04:50:39;;;;;;;0.40;0.40;;;;;;;13.00;73.99;98262.09;5067964;28;20031;-66
2022/09/15 04:53:05;;;;;;;0.30;0.30;;;;;;;13.04;74.01;98269.75;5068064;28;20094;-66
2022/09/15 04:55:35;;;;;;;0.40;0.40;;;;;;;13.02;73.49;98259.41;5067729;28;20025;-65
2022/09/15 04:58:01;;;;;;;0.30;0.30;;;;;;;12.97;73.08;98269.25;5067663;28;20138;-66
2022/09/15 05:00:28;;;;;;;0.30;0.30;;;;;;;12.82;72.69;98282.16;5067916;28;20028;-66
2022/09/15 05:02:53;;;;;;;0.30;0.30;;;;;;;12.64;73.07;98279.56;5067414;28;20021;-65
2022/09/15 05:05:19;;;;;;;0.30;0.30;;;;;;;12.51;73.00;98271.53;5067597;28;20036;-67
2022/09/15 05:07:46;;;;;;;0.30;0.30;;;;;;;12.41;72.99;98262.53;5067624;28;20021;-67
2022/09/15 05:10:12;;;;;;;0.30;0.30;;;;;;;12.30;73.18;98254.41;5067809;28;20127;-67
2022/09/15 05:12:37;;;;;;;0.30;0.30;;;;;;;12.28;73.33;98272.72;5067321;28;20481;-66
2022/09/15 05:15:03;;;;;;;0.30;0.30;;;;;;;12.17;72.39;98267.19;5067476;28;20021;-68
2022/09/15 05:17:32;;;;;;;0.30;0.30;;;;;;;12.08;71.76;98248.50;5067229;28;20025;-68
2022/09/15 05:20:04;;;;;;;0.30;0.30;;;;;;;11.90;71.17;98256.28;5067219;28;20024;-70
2022/09/15 05:22:30;;;;;;;0.40;0.40;;;;;;;11.71;70.69;98242.50;5067387;28;20111;-69
2022/09/15 05:24:56;;;;;;;0.30;0.30;;;;;;;11.49;70.71;98285.94;5067494;28;20029;-70
2022/09/15 05:27:21;;;;;;;0.30;0.30;;;;;;;11.36;70.79;98288.25;5067312;28;20031;-70
2022/09/15 05:29:46;;;;;;;0.32;0.32;;;;;;;11.28;70.96;98308.53;5067228;28;20055;-69
2022/09/15 05:32:12;;;;;;;0.40;0.40;;;;;;;11.22;71.04;98320.03;5067154;28;20074;-68
2022/09/15 05:34:37;;;;;;;0.30;0.30;;;;;;;11.14;71.24;98323.00;5066872;28;20523;-68
2022/09/15 05:37:04;;;;;;;0.40;0.40;;;;;;;11.09;71.13;98330.13;5065583;28;20041;-68
2022/09/15 05:39:29;;;;;;;0.35;0.35;;;;;;;11.06;71.66;98334.59;5067234;28;20024;-65
2022/09/15 05:41:54;;;;;;;0.30;0.30;;;;;;;11.06;71.53;98330.25;5066760;28;20029;-66
2022/09/15 05:44:20;;;;;;;0.40;0.40;;;;;;;11.00;71.78;98328.78;5067308;28;20028;-67
2022/09/15 05:46:46;;;;;;;0.30;0.30;;;;;;;11.01;71.93;98329.63;5067013;28;20017;-72
2022/09/15 05:49:12;;;;;;;0.50;0.50;;;;;;;10.87;72.08;98323.28;5067103;28;20025;-72
2022/09/15 05:51:37;;;;;;;0.30;0.30;;;;;;;10.68;72.56;98314.59;5066912;28;20086;-74
2022/09/15 05:54:03;;;;;;;0.30;0.30;;;;;;;10.50;72.93;98301.50;5066749;28;20021;-74
2022/09/15 05:56:28;;;;;;;0.40;0.40;;;;;;;10.32;73.09;98303.91;5063843;28;20428;-71
2022/09/15 05:58:54;;;;;;;0.70;0.70;;;;;;;10.19;73.60;98302.75;5064493;28;20029;-72
2022/09/15 06:01:22;;;;;;;0.40;0.40;;;;;;;10.07;74.10;98306.66;5064086;28;20074;-70
2022/09/15 06:03:48;;;;;;;0.40;0.40;;;;;;;9.98;73.45;98277.63;5064342;28;20033;-69
2022/09/15 06:06:14;;;;;;;0.40;0.40;;;;;;;9.96;74.46;98276.00;5063522;28;20032;-70
2022/09/15 06:08:43;;;;;;;0.40;0.40;;;;;;;9.94;75.25;98289.00;5065592;28;20021;-70
2022/09/15 06:11:11;;;;;;;0.40;0.40;;;;;;;9.93;74.71;98287.34;5065575;28;20407;-73
2022/09/15 06:13:37;;;;;;;0.40;0.40;;;;;;;9.98;75.65;98290.59;5065585;28;20031;-74
2022/09/15 06:16:08;;;;;;;0.40;0.40;;;;;;;9.99;76.09;98287.09;5064034;28;20029;-71
2022/09/15 06:18:36;;;;;;;0.50;0.50;;;;;;;10.10;76.91;98289.25;5065203;28;20024;-73
2022/09/15 06:21:23;;;;;;;0.40;0.40;;;;;;;10.15;77.53;98279.53;5065343;28;20020;-73
2022/09/15 06:23:56;;;;;;;0.40;0.40;;;;;;;10.20;77.79;98275.91;5065232;28;20033;-73
2022/09/15 06:26:22;;;;;;;0.40;0.40;;;;;;;10.21;78.09;98283.59;5065396;28;20021;-74
2022/09/15 06:28:53;;;;;;;0.40;0.40;;;;;;;10.28;78.54;98281.59;5065235;28;20072;-74
2022/09/15 06:31:19;;;;;;;0.40;0.40;;;;;;;10.34;78.78;98299.50;5065371;28;20036;-72
2022/09/15 06:33:52;;;;;;;0.40;0.40;;;;;;;10.45;79.08;98296.47;5065052;28;20017;-71
2022/09/15 06:36:20;;;;;;;0.40;0.40;;;;;;;10.56;79.64;98290.84;5063353;28;20045;-70
2022/09/15 06:38:46;;;;;;;0.40;0.40;;;;;;;10.59;79.79;98295.09;5063550;28;20063;-69
2022/09/15 06:41:12;;;;;;;0.40;0.40;;;;;;;10.73;79.97;98307.47;5065037;28;20053;-68
2022/09/15 06:43:38;;;;;;;0.40;0.40;;;;;;;10.78;80.19;98302.94;5064997;28;20409;-67
2022/09/15 06:46:15;;;;;;;0.30;0.30;;;;;;;10.90;80.97;98306.72;5064948;28;20484;-68
2022/09/15 06:48:41;;;;;;;0.70;0.70;;;;;;;11.08;81.00;98315.47;5064630;28;20055;-70
2022/09/15 06:51:09;;;;;;;0.40;0.40;;;;;;;11.21;81.59;98307.13;5064631;28;20033;-70
2022/09/15 06:53:39;;;;;;;0.35;0.35;;;;;;;11.42;81.83;98305.31;5064842;28;20028;-70
2022/09/15 06:56:07;;;;;;;0.40;0.40;;;;;;;11.67;82.25;98316.31;5064602;28;20208;-69
2022/09/15 06:58:34;;;;;;;0.40;0.40;;;;;;;11.92;82.62;98328.19;5064857;28;20203;-69
2022/09/15 07:01:02;;;;;;;0.30;0.30;;;;;;;12.31;83.39;98322.00;5064836;28;20025;-70
2022/09/15 07:03:27;;;;;;;0.30;0.30;;;;;;;12.90;83.99;98326.00;5064479;28;20033;-69
2022/09/15 07:05:53;;;;;;;0.30;0.30;;;;;;;13.25;83.49;98332.91;5064511;28;20090;-68
2022/09/15 07:08:18;;;;;;;0.30;0.30;;;;;;;13.64;83.58;98320.44;5064555;28;20025;-69
2022/09/15 07:10:44;;;;;;;0.30;0.30;;;;;;;14.03;84.85;98322.66;5064294;28;20024;-69
2022/09/15 07:13:09;;;;;;;0.30;0.30;;;;;;;14.47;85.00;98321.06;5064411;28;20032;-69
2022/09/15 07:15:35;;;;;;;0.30;0.30;;;;;;;14.77;84.92;98324.56;5064531;28;20029;-69
2022/09/15 07:18:00;;;;;;;0.30;0.30;;;;;;;14.97;85.46;98318.16;5064178;28;20021;-69
2022/09/15 07:20:26;;;;;;;0.30;0.30;;;;;;;15.36;86.05;98324.53;5064273;28;20027;-69
2022/09/15 07:22:51;;;;;;;0.30;0.30;;;;;;;15.71;85.64;98325.03;5064333;28;20021;-69
2022/09/15 07:25:17;;;;;;;0.30;0.30;;;;;;;15.68;84.60;98323.44;5064151;28;20451;-70
2022/09/15 07:27:42;;;;;;;0.30;0.30;;;;;;;15.71;84.41;98319.78;5063205;28;20051;-70
2022/09/15 07:30:09;;;;;;;0.30;0.30;;;;;;;15.91;83.04;98328.16;5063155;28;20029;-70
2022/09/15 07:32:34;;;;;;;0.20;0.20;;;;;;;16.27;83.27;98326.72;5064121;28;20111;-70
2022/09/15 07:35:01;;;;;;;0.30;0.30;;;;;;;16.45;81.75;98326.44;5063634;28;20465;-69
2022/09/15 07:37:26;;;;;;;0.30;0.30;;;;;;;17.51;80.78;98323.72;5062914;28;20106;-70
2022/09/15 07:39:51;;;;;;;0.20;0.20;;;;;;;18.69;82.04;98322.25;5064009;28;20029;-70
2022/09/15 07:42:17;;;;;;;0.20;0.20;;;;;;;18.93;81.72;98324.78;5064252;28;20404;-70
2022/09/15 07:44:42;;;;;;;0.20;0.20;;;;;;;18.99;81.64;98325.25;5064267;28;20025;-70
2022/09/15 07:47:08;;;;;;;0.30;0.30;;;;;;;18.78;81.07;98320.69;5064014;28;20077;-69
2022/09/15 07:49:33;;;;;;;0.20;0.20;;;;;;;18.44;81.10;98324.06;5062657;28;20036;-69
2022/09/15 07:51:59;;;;;;;0.20;0.20;;;;;;;18.56;82.92;98325.78;5063948;28;20032;-69
2022/09/15 07:54:24;;;;;;;0.20;0.20;;;;;;;18.53;82.51;98338.34;5064296;28;20024;-68
2022/09/15 07:56:50;;;;;;;0.25;0.25;;;;;;;18.71;82.20;98341.34;5063914;28;20023;-69
2022/09/15 07:59:15;;;;;;;0.20;0.20;;;;;;;19.20;83.29;98335.94;5063951;28;20048;-70
2022/09/15 08:01:40;;;;;;;0.20;0.20;;;;;;;19.82;84.72;98338.16;5063766;28;20032;-69
2022/09/15 08:04:06;;;;;;;0.20;0.20;;;;;;;20.63;85.49;98333.41;5063969;28;20025;-70
2022/09/15 08:06:31;;;;;;;0.20;0.20;;;;;;;21.31;83.53;98326.81;5063835;28;20021;-69
2022/09/15 08:08:56;;;;;;;0.20;0.20;;;;;;;21.81;82.38;98332.25;5063827;28;20038;-71
2022/09/15 08:11:22;;;;;;;0.20;0.20;;;;;;;21.79;80.41;98325.31;5063931;28;20027;-70
2022/09/15 08:13:50;;;;;;;0.20;0.20;;;;;;;21.28;78.20;98325.28;5063683;28;20029;-68
2022/09/15 08:16:18;;;;;;;0.20;0.20;;;;;;;20.36;77.19;98337.38;5063629;28;20021;-70
2022/09/15 08:18:44;;;;;;;2.15;1.35;;;;;;;19.79;76.77;98336.56;5062360;28;20092;-69
2022/09/15 08:21:12;;;;;;;0.20;0.20;;;;;;;19.13;77.65;98334.72;5063498;28;20040;-70
2022/09/15 08:23:38;;;;;;;0.20;0.20;;;;;;;18.38;78.48;98337.66;5066934;28;20037;-69
2022/09/15 08:26:08;;;;;;;0.65;0.65;;;;;;;17.87;77.87;98343.03;5067438;28;20021;-69
2022/09/15 08:28:34;;;;;;;0.20;0.20;;;;;;;17.10;76.78;98337.00;5067290;28;20024;-68
2022/09/15 08:31:04;;;;;;;0.20;0.20;;;;;;;16.82;77.35;98344.94;5067368;28;20017;-68
2022/09/15 08:33:30;;;;;;;0.20;0.20;;;;;;;16.45;77.88;98356.06;5067565;28;20051;-68
2022/09/15 08:36:00;;;;;;;0.30;0.30;;;;;;;16.21;78.42;98367.22;5066662;28;20493;-68
2022/09/15 08:38:26;;;;;;;0.20;0.20;;;;;;;15.97;79.53;98362.63;5067498;28;20104;-69
2022/09/15 08:40:58;;;;;;;0.20;0.20;;;;;;;16.04;80.22;98360.47;5067405;28;20036;-68
2022/09/15 08:43:28;;;;;;;0.20;0.20;;;;;;;16.50;81.15;98365.44;5067215;28;20109;-68
2022/09/15 08:46:02;;;;;;;0.28;0.28;;;;;;;17.59;81.56;98351.09;5067147;28;20071;-69
2022/09/15 08:48:34;;;;;;;0.20;0.20;;;;;;;18.78;79.36;98337.31;5067067;28;20154;-69
2022/09/15 08:51:05;;;;;;;0.30;0.30;;;;;;;20.06;75.54;98355.59;5066822;28;20032;-70
2022/09/15 08:53:36;;;;;;;0.30;0.30;;;;;;;21.29;73.74;98345.44;5066091;28;20078;-69
2022/09/15 08:56:10;;;;;;;0.20;0.20;;;;;;;22.36;70.91;98346.78;5066141;28;20045;-70
2022/09/15 08:58:36;;;;;;;0.20;0.20;;;;;;;23.28;67.92;98352.44;5066634;28;20024;-66
2022/09/15 09:01:35;;;;;;;0.20;0.20;;;;;;;24.03;61.29;98355.13;5067112;28;20021;-64
2022/09/15 09:04:26;;;;;;;0.20;0.20;;;;;;;24.62;63.04;98357.31;5066718;28;20059;-65
2022/09/15 09:06:59;;;;;;;0.20;0.20;;;;;;;24.98;61.01;98353.78;5066628;28;20031;-66
2022/09/15 09:09:43;;;;;;;0.10;0.10;;;;;;;25.78;60.54;98352.78;5066675;28;20025;-66
2022/09/15 09:12:23;;;;;;;1.30;1.20;;;;;;;26.05;59.01;98348.19;5066550;28;20025;-65
2022/09/15 09:15:13;;;;;;;0.10;0.10;;;;;;;26.23;52.26;98361.34;5066754;28;20067;-65
2022/09/15 09:17:55;;;;;;;0.15;0.15;;;;;;;27.04;57.56;98362.50;5066516;28;20392;-65
2022/09/15 09:20:39;;;;;;;0.20;0.20;;;;;;;27.24;45.63;98364.78;5066326;28;20029;-65
2022/09/15 09:23:12;;;;;;;0.13;0.13;;;;;;;27.94;53.60;98363.13;5066448;28;20031;-65
2022/09/15 09:25:39;;;;;;;0.20;0.20;;;;;;;28.34;51.08;98367.53;5066410;28;20020;-65
2022/09/15 09:28:22;;;;;;;0.20;0.20;;;;;;;28.73;49.73;98367.56;5066321;28;20024;-65
2022/09/15 09:30:47;;;;;;;0.10;0.10;;;;;;;29.16;46.86;98365.16;5066425;28;20021;-66
2022/09/15 09:33:37;;;;;;;0.10;0.10;;;;;;;29.03;46.91;98363.13;5065646;28;20240;-66
2022/09/15 09:36:03;;;;;;;0.15;0.15;;;;;;;29.52;48.49;98355.53;5065789;28;20049;-67
2022/09/15 09:38:36;;;;;;;0.10;0.10;;;;;;;29.60;37.33;98365.34;5066065;28;20039;-67
2022/09/15 09:41:08;;;;;;;0.10;0.10;;;;;;;29.60;45.79;98360.00;5066604;28;20021;-65
2022/09/15 09:43:33;;;;;;;0.10;0.10;;;;;;;28.98;42.46;98362.84;5066329;28;20024;-66
2022/09/15 09:45:59;;;;;;;0.10;0.10;;;;;;;27.24;42.67;98365.59;5066181;28;20051;-65
2022/09/15 09:48:26;;;;;;;0.10;0.10;;;;;;;25.48;45.78;98374.44;5065959;28;20021;-65
2022/09/15 09:50:52;;;;;;;0.13;0.13;;;;;;;24.06;46.91;98377.84;5065879;28;20029;-65
2022/09/15 09:53:28;;;;;;;0.15;0.15;;;;;;;22.70;48.93;98375.44;5065988;28;20051;-65
2022/09/15 09:56:21;;;;;;;0.10;0.10;;;;;;;21.65;49.24;98370.56;5065970;28;20029;-66
2022/09/15 09:58:46;;;;;;;0.15;0.15;;;;;;;22.15;51.62;98367.09;5055232;28;20033;-66
2022/09/15 10:01:17;;;;;;;0.20;0.20;;;;;;;23.77;50.92;98367.28;5066022;28;20027;-65
2022/09/15 10:03:44;;;;;;;0.20;0.20;;;;;;;25.28;47.92;98369.34;5065723;28;20483;-65
2022/09/15 10:06:14;;;;;;;0.10;0.10;;;;;;;25.62;47.00;98370.34;5065651;28;20052;-65
2022/09/15 10:09:07;;;;;;;0.10;0.10;;;;;;;25.23;44.30;98376.94;5065694;28;20074;-67
2022/09/15 10:11:45;;;;;;;0.10;0.10;;;;;;;25.85;45.12;98365.25;5065686;28;20044;-66
2022/09/15 10:14:21;;;;;;;0.10;0.10;;;;;;;26.55;42.35;98374.84;5065473;28;20028;-66
2022/09/15 10:16:57;;;;;;;0.10;0.10;;;;;;;26.95;42.63;98359.81;5065569;28;20057;-66
2022/09/15 10:19:22;;;;;;;0.13;0.13;;;;;;;27.34;43.08;98365.41;5065563;28;20028;-67
2022/09/15 10:21:48;;;;;;;0.20;0.20;;;;;;;26.50;42.98;98366.53;5065231;28;20024;-66
2022/09/15 10:24:43;;;;;;;0.10;0.10;;;;;;;25.32;39.56;98362.72;5065452;28;20045;-66
2022/09/15 10:27:26;;;;;;;0.10;0.10;;;;;;;24.90;44.66;98368.81;5052380;28;20061;-67
2022/09/15 10:29:53;;;;;;;0.20;0.20;;;;;;;24.61;43.21;98360.13;5065300;28;20503;-67
2022/09/15 10:32:28;;;;;;;0.20;0.20;;;;;;;25.04;42.78;98362.06;5065446;28;20027;-66
2022/09/15 10:35:17;;;;;;;0.55;0.55;;;;;;;25.69;40.56;98363.41;5064692;28;20025;-65
2022/09/15 10:37:46;;;;;;;0.20;0.20;;;;;;;25.79;40.38;98365.91;5064946;28;20037;-66
2022/09/15 10:40:20;;;;;;;0.20;0.20;;;;;;;26.20;39.90;98362.50;5065149;28;20029;-66
2022/09/15 10:42:58;;;;;;;0.10;0.10;;;;;;;26.23;36.80;98362.16;5065014;28;20025;-65
2022/09/15 10:45:31;;;;;;;0.10;0.10;;;;;;;26.20;38.00;98361.69;5064509;28;20027;-65
2022/09/15 10:48:15;;;;;;;0.10;0.10;;;;;;;25.90;37.31;98366.59;5064784;28;20017;-67
2022/09/15 10:51:01;;;;;;;0.10;0.10;;;;;;;26.49;38.89;98373.69;5064845;28;20021;-66
2022/09/15 10:53:29;;;;;;;0.10;0.10;;;;;;;25.85;37.97;98367.09;5064972;28;20076;-66
2022/09/15 10:56:35;;;;;;;0.20;0.20;;;;;;;24.64;39.64;98373.06;5064705;28;20025;-65
2022/09/15 10:59:25;;;;;;;0.10;0.10;;;;;;;24.29;40.50;98372.97;5064291;28;20037;-65
2022/09/15 11:02:13;;;;;;;0.10;0.10;;;;;;;24.53;39.04;98378.63;5063576;28;20465;-66
2022/09/15 11:04:56;;;;;;;0.10;0.10;;;;;;;24.88;38.42;98376.88;5064838;28;20041;-68
2022/09/15 11:07:54;;;;;;;0.10;0.10;;;;;;;23.83;37.49;98375.63;5064817;28;20077;-68
2022/09/15 11:10:30;;;;;;;0.20;0.20;;;;;;;23.87;38.62;98371.66;5064595;28;20055;-66
2022/09/15 11:12:59;;;;;;;0.20;0.20;;;;;;;25.08;38.87;98369.56;5064556;28;20025;-67
2022/09/15 11:15:24;;;;;;;0.20;0.20;;;;;;;25.90;36.11;98367.44;5064572;28;20017;-67
2022/09/15 11:18:08;;;;;;;0.20;0.20;;;;;;;24.91;37.06;98363.34;5064259;28;20515;-66
2022/09/15 11:20:38;;;;;;;0.20;0.20;;;;;;;23.33;38.62;98375.81;5064368;28;20017;-67
2022/09/15 11:23:16;;;;;;;0.20;0.20;;;;;;;22.20;39.89;98374.59;5063292;28;20509;-67
2022/09/15 11:25:53;;;;;;;0.20;0.20;;;;;;;21.37;41.27;98378.25;5064271;28;20082;-67
2022/09/15 11:28:26;;;;;;;4.95;1.83;;;;;;;20.80;42.18;98382.91;5063457;28;20036;-66
2022/09/15 11:30:59;;;;;;;1.38;1.27;;;;;;;20.18;43.02;98383.56;5063641;28;20021;-66
2022/09/15 11:33:33;;;;;;;0.20;0.20;;;;;;;19.56;43.44;98380.53;5064504;28;20028;-67
2022/09/15 11:36:10;;;;;;;0.20;0.20;;;;;;;19.12;44.23;98385.66;5063986;28;20049;-67
2022/09/15 11:38:53;;;;;;;0.20;0.20;;;;;;;18.60;44.60;98388.59;5064224;28;20374;-67
2022/09/15 11:41:49;;;;;;;0.30;0.30;;;;;;;18.17;45.44;98390.81;5064457;28;20072;-67
2022/09/15 11:44:30;;;;;;;0.22;0.22;;;;;;;17.98;46.03;98394.75;5058973;28;20501;-66
2022/09/15 11:47:27;;;;;;;0.20;0.20;;;;;;;17.75;46.60;98385.91;5064103;28;20507;-66
2022/09/15 11:50:17;;;;;;;0.30;0.30;;;;;;;17.73;47.14;98391.25;5064076;28;20488;-66
2022/09/15 11:52:53;;;;;;;0.30;0.30;;;;;;;17.71;46.94;98386.13;5064184;28;20025;-65